createdAt,value
2022-10-23T00:01:20.380Z,20.20
2022-10-23T00:03:52.824Z,19.60
2022-10-23T00:06:19.864Z,20.20
2022-10-23T00:08:47.624Z,20.00
2022-10-23T00:11:16.593Z,20.30
2022-10-23T00:13:43.674Z,19.90
2022-10-23T00:16:10.733Z,19.30
2022-10-23T00:18:38.680Z,19.20
2022-10-23T00:21:06.991Z,18.70
2022-10-23T00:23:34.520Z,20.20
2022-10-23T00:26:04.533Z,20.70
2022-10-23T00:28:31.582Z,21.60
2022-10-23T00:30:58.631Z,20.50
2022-10-23T00:33:25.786Z,20.90
2022-10-23T00:35:52.721Z,21.90
2022-10-23T00:38:19.769Z,22.60
2022-10-23T00:40:47.372Z,23.20
2022-10-23T00:43:23.312Z,21.70
2022-10-23T00:45:50.331Z,20.60
2022-10-23T00:48:17.993Z,19.30
2022-10-23T00:50:45.040Z,19.50
2022-10-23T00:53:12.513Z,18.80
2022-10-23T00:55:41.363Z,18.80
2022-10-23T00:58:08.331Z,19.60
2022-10-23T01:00:45.924Z,20.00
2022-10-23T01:03:14.513Z,19.90
2022-10-23T01:06:00.195Z,20.30
2022-10-23T01:09:05.263Z,20.60
2022-10-23T01:11:41.188Z,21.70
2022-10-23T01:14:15.219Z,20.20
2022-10-23T01:16:50.436Z,22.10
2022-10-23T01:19:35.347Z,21.30
2022-10-23T01:22:25.954Z,21.60
2022-10-23T01:25:03.370Z,24.20
2022-10-23T01:27:36.649Z,21.20
2022-10-23T01:32:55.361Z,20.60
2022-10-23T01:35:46.162Z,22.10
2022-10-23T01:38:14.544Z,20.80
2022-10-23T01:40:49.273Z,21.20
2022-10-23T01:43:22.878Z,20.10
2022-10-23T01:45:51.939Z,21.60
2022-10-23T01:48:25.094Z,21.20
2022-10-23T01:50:53.738Z,22.00
2022-10-23T01:53:20.893Z,21.00
2022-10-23T01:55:48.250Z,20.80
2022-10-23T01:58:21.330Z,20.00
2022-10-23T02:00:48.624Z,21.20
2022-10-23T02:03:16.653Z,22.50
2022-10-23T02:05:43.807Z,20.70
2022-10-23T02:08:11.023Z,21.00
2022-10-23T02:10:55.350Z,20.00
2022-10-23T02:13:25.771Z,21.20
2022-10-23T02:16:04.514Z,21.50
2022-10-23T02:18:44.404Z,19.70
2022-10-23T02:21:14.043Z,20.50
2022-10-23T02:24:02.972Z,20.80
2022-10-23T02:26:33.006Z,20.60
2022-10-23T02:29:07.535Z,22.20
2022-10-23T02:31:35.887Z,20.20
2022-10-23T02:34:03.038Z,20.20
2022-10-23T02:36:30.082Z,21.80
2022-10-23T02:38:57.641Z,22.20
2022-10-23T02:41:32.369Z,21.00
2022-10-23T02:44:04.332Z,21.50
2022-10-23T02:46:38.971Z,19.60
2022-10-23T02:49:31.992Z,19.70
2022-10-23T02:52:18.123Z,20.60
2022-10-23T02:55:11.703Z,21.00
2022-10-23T03:00:17.452Z,19.70
2022-10-23T03:02:45.761Z,18.40
2022-10-23T03:05:20.037Z,19.80
2022-10-23T03:07:48.314Z,19.20
2022-10-23T03:10:16.722Z,17.70
2022-10-23T03:12:43.871Z,15.90
2022-10-23T03:15:12.341Z,15.40
2022-10-23T03:17:40.213Z,14.80
2022-10-23T03:20:07.953Z,15.10
2022-10-23T03:22:36.027Z,13.20
2022-10-23T03:25:03.175Z,14.00
2022-10-23T03:27:31.482Z,12.90
2022-10-23T03:29:59.932Z,13.90
2022-10-23T03:32:26.995Z,11.70
2022-10-23T03:34:54.233Z,10.40
2022-10-23T03:37:22.621Z,10.40
2022-10-23T03:39:50.576Z,10.50
2022-10-23T03:42:17.730Z,9.40
2022-10-23T03:44:44.876Z,9.10
2022-10-23T03:47:12.536Z,8.00
2022-10-23T03:49:39.893Z,7.70
2022-10-23T03:52:07.306Z,6.50
2022-10-23T03:54:34.703Z,6.70
2022-10-23T03:57:01.750Z,6.70
2022-10-23T03:59:30.263Z,5.40
2022-10-23T04:01:58.677Z,5.50
2022-10-23T04:04:26.192Z,5.60
2022-10-23T04:14:39.564Z,4.80
2022-10-23T04:17:07.105Z,4.60
2022-10-23T04:19:34.365Z,4.40
2022-10-23T04:22:01.507Z,4.40
2022-10-23T04:24:28.672Z,4.70
2022-10-23T04:26:56.434Z,3.70
2022-10-23T04:29:28.792Z,3.00
2022-10-23T04:31:55.747Z,2.80
2022-10-23T04:34:22.771Z,2.80
2022-10-23T04:36:52.434Z,2.90
2022-10-23T04:39:19.582Z,2.40
2022-10-23T04:41:47.408Z,2.20
2022-10-23T04:44:14.684Z,1.80
2022-10-23T04:46:41.707Z,1.90
2022-10-23T04:49:09.802Z,1.30
2022-10-23T04:52:09.491Z,1.10
2022-10-23T04:54:50.054Z,1.00
2022-10-23T04:58:04.460Z,1.00
2022-10-23T05:02:17.159Z,1.00
2022-10-23T05:08:56.957Z,0.60
2022-10-23T05:11:42.941Z,0.70
2022-10-23T05:14:10.306Z,0.90
2022-10-23T05:16:39.088Z,0.80
2022-10-23T05:19:07.189Z,0.70
2022-10-23T05:21:34.822Z,0.80
2022-10-23T05:24:04.936Z,0.90
2022-10-23T05:26:32.392Z,0.60
2022-10-23T05:29:04.765Z,0.70
2022-10-23T05:31:32.734Z,1.00
2022-10-23T05:34:06.808Z,0.90
2022-10-23T05:36:35.228Z,1.20
2022-10-23T05:39:04.023Z,1.10
2022-10-23T05:41:32.092Z,1.10
2022-10-23T05:43:59.446Z,1.00
2022-10-23T05:46:52.596Z,1.40
2022-10-23T05:49:39.918Z,1.80
2022-10-23T05:52:22.549Z,1.60
2022-10-23T05:55:04.837Z,1.60
2022-10-23T05:57:48.169Z,1.80
2022-10-23T06:00:19.236Z,1.80
2022-10-23T06:02:54.164Z,2.50
2022-10-23T06:05:30.855Z,1.70
2022-10-23T06:08:16.629Z,2.00
2022-10-23T06:10:48.967Z,1.50
2022-10-23T06:13:16.022Z,1.70
2022-10-23T06:15:43.678Z,2.00
2022-10-23T06:18:22.547Z,2.00
2022-10-23T06:20:56.526Z,2.10
2022-10-23T06:23:25.712Z,1.60
2022-10-23T06:26:14.360Z,1.40
2022-10-23T06:31:44.195Z,1.60
2022-10-23T06:34:12.676Z,1.30
2022-10-23T06:36:39.857Z,1.30
2022-10-23T06:39:28.468Z,1.10
2022-10-23T06:42:16.970Z,1.40
2022-10-23T06:44:57.186Z,1.80
2022-10-23T06:47:43.209Z,2.40
2022-10-23T06:50:32.821Z,1.70
2022-10-23T06:53:05.893Z,1.60
2022-10-23T06:55:33.870Z,1.60
2022-10-23T06:58:00.958Z,1.60
2022-10-23T07:00:28.905Z,1.90
2022-10-23T07:02:56.792Z,2.30
2022-10-23T07:05:23.795Z,1.80
2022-10-23T07:07:50.885Z,2.20
2022-10-23T07:10:23.365Z,1.50
2022-10-23T07:13:01.249Z,1.60
2022-10-23T07:15:37.218Z,2.40
2022-10-23T07:18:05.509Z,2.30
2022-10-23T07:20:49.745Z,1.70
2022-10-23T07:23:16.801Z,1.50
2022-10-23T07:25:44.583Z,2.30
2022-10-23T07:28:13.661Z,1.80
2022-10-23T07:30:41.606Z,1.80
2022-10-23T07:33:12.598Z,2.00
2022-10-23T07:35:57.217Z,2.00
2022-10-23T07:38:28.054Z,1.80
2022-10-23T07:40:58.109Z,2.60
2022-10-23T07:43:26.372Z,2.00
2022-10-23T07:45:53.706Z,2.30
2022-10-23T07:48:27.418Z,3.30
2022-10-23T07:51:03.807Z,2.30
2022-10-23T07:53:31.125Z,2.50
2022-10-23T07:56:32.279Z,1.90
2022-10-23T07:59:15.092Z,2.10
2022-10-23T08:01:48.184Z,2.70
2022-10-23T08:04:16.410Z,2.30
2022-10-23T08:07:03.775Z,2.10
2022-10-23T08:09:38.401Z,2.40
2022-10-23T08:12:05.963Z,2.20
2022-10-23T08:14:32.915Z,2.30
2022-10-23T08:19:52.614Z,2.50
2022-10-23T08:22:19.953Z,2.80
2022-10-23T08:24:47.000Z,2.90
2022-10-23T08:27:14.353Z,2.90
2022-10-23T08:29:44.302Z,2.40
2022-10-23T08:32:12.194Z,3.30
2022-10-23T08:34:53.111Z,3.00
2022-10-23T08:37:24.062Z,2.60
2022-10-23T08:39:53.249Z,2.70
2022-10-23T08:42:29.918Z,2.30
2022-10-23T08:45:30.562Z,2.50
2022-10-23T08:48:19.519Z,2.40
2022-10-23T08:54:53.961Z,2.50
2022-10-23T08:57:22.347Z,2.80
2022-10-23T08:59:58.095Z,2.70
2022-10-23T09:02:25.129Z,2.10
2022-10-23T09:04:53.927Z,2.50
2022-10-23T09:07:36.445Z,2.60
2022-10-23T09:10:13.106Z,2.70
2022-10-23T09:12:42.525Z,2.80
2022-10-23T09:15:15.701Z,3.10
2022-10-23T09:17:43.959Z,2.80
2022-10-23T09:20:22.178Z,2.60
2022-10-23T09:22:50.980Z,2.60
2022-10-23T09:25:19.967Z,2.50
2022-10-23T09:27:50.662Z,3.00
2022-10-23T09:30:39.969Z,2.90
2022-10-23T09:33:34.879Z,23.10
2022-10-23T09:36:04.462Z,5.70
2022-10-23T09:38:35.416Z,3.30
2022-10-23T09:41:27.342Z,3.30
2022-10-23T09:44:07.854Z,3.10
2022-10-23T09:46:44.296Z,2.90
2022-10-23T09:49:30.981Z,3.00
2022-10-23T09:52:10.435Z,2.80
2022-10-23T09:54:39.625Z,2.80
2022-10-23T09:57:20.086Z,3.00
2022-10-23T09:59:51.629Z,3.80
2022-10-23T10:02:37.318Z,3.40
2022-10-23T10:05:29.858Z,3.10
2022-10-23T10:08:19.922Z,2.60
2022-10-23T10:12:51.616Z,2.50
2022-10-23T10:15:29.720Z,2.80
2022-10-23T10:18:17.964Z,2.90
2022-10-23T10:20:45.019Z,2.40
2022-10-23T10:23:27.530Z,2.00
2022-10-23T10:25:57.951Z,2.50
2022-10-23T10:28:32.470Z,2.00
2022-10-23T10:31:18.578Z,1.90
2022-10-23T10:34:01.077Z,1.60
2022-10-23T10:36:31.917Z,1.60
2022-10-23T10:39:03.469Z,1.10
2022-10-23T10:41:36.868Z,2.20
2022-10-23T10:44:35.499Z,1.90
2022-10-23T10:47:09.623Z,1.50
2022-10-23T10:49:50.577Z,1.80
2022-10-23T10:52:23.215Z,1.80
2022-10-23T10:55:02.452Z,1.70
2022-10-23T10:57:43.407Z,1.40
2022-10-23T11:00:18.427Z,1.40
2022-10-23T11:03:07.619Z,1.60
2022-10-23T11:05:52.829Z,1.80
2022-10-23T11:08:40.201Z,1.80
2022-10-23T11:11:32.625Z,1.10
2022-10-23T11:13:59.728Z,1.00
2022-10-23T11:16:31.774Z,1.70
2022-10-23T11:19:11.274Z,1.70
2022-10-23T11:22:04.366Z,1.80
2022-10-23T11:24:34.800Z,2.60
2022-10-23T11:27:22.321Z,2.80
2022-10-23T11:30:13.307Z,2.20
2022-10-23T11:33:02.187Z,2.30
2022-10-23T11:35:51.250Z,1.80
2022-10-23T11:38:27.347Z,1.70
2022-10-23T11:41:00.131Z,2.90
2022-10-23T11:43:31.563Z,1.60
2022-10-23T11:45:58.895Z,5.80
2022-10-23T11:48:48.061Z,2.10
2022-10-23T11:51:35.288Z,1.50
2022-10-23T11:54:11.748Z,1.60
2022-10-23T11:56:39.647Z,1.70
2022-10-23T11:59:23.867Z,1.30
2022-10-23T12:01:51.056Z,1.80
2022-10-23T12:04:22.112Z,1.80
2022-10-23T12:07:00.797Z,2.20
2022-10-23T12:10:25.071Z,1.60
2022-10-23T12:12:59.799Z,1.80
2022-10-23T12:15:27.568Z,2.00
2022-10-23T12:17:55.629Z,1.60
2022-10-23T12:20:53.251Z,1.90
2022-10-23T12:23:23.726Z,2.00
2022-10-23T12:26:28.882Z,1.40
2022-10-23T12:29:21.310Z,1.60
2022-10-23T12:31:51.737Z,2.00
2022-10-23T12:34:40.494Z,1.70
2022-10-23T12:37:29.858Z,1.80
2022-10-23T12:39:57.250Z,1.50
2022-10-23T12:42:28.770Z,2.20
2022-10-23T12:45:08.813Z,2.00
2022-10-23T12:47:35.888Z,2.20
2022-10-23T12:50:05.334Z,1.70
2022-10-23T12:52:35.901Z,1.80
2022-10-23T12:55:13.204Z,2.00
2022-10-23T12:57:45.053Z,1.90
2022-10-23T13:00:21.004Z,2.30
2022-10-23T13:03:04.025Z,1.90
2022-10-23T13:07:58.525Z,2.20
2022-10-23T13:10:35.302Z,2.00
2022-10-23T13:13:06.358Z,2.00
2022-10-23T13:15:41.168Z,2.10
2022-10-23T13:18:09.269Z,2.00
2022-10-23T13:20:38.342Z,2.10
2022-10-23T13:23:09.896Z,2.10
2022-10-23T13:25:38.112Z,1.80
2022-10-23T13:28:08.388Z,2.00
2022-10-23T13:30:38.408Z,2.20
2022-10-23T13:33:21.127Z,1.50
2022-10-23T13:35:58.622Z,2.20
2022-10-23T13:39:07.820Z,2.10
2022-10-23T13:41:53.017Z,1.90
2022-10-23T13:44:21.818Z,1.90
2022-10-23T13:46:49.283Z,1.50
2022-10-23T13:49:16.533Z,1.70
2022-10-23T13:51:50.115Z,1.70
2022-10-23T13:54:22.125Z,1.60
2022-10-23T13:56:49.431Z,1.90
2022-10-23T13:59:17.656Z,1.70
2022-10-23T14:01:46.265Z,1.90
2022-10-23T14:04:13.773Z,1.90
2022-10-23T14:06:40.899Z,1.80
2022-10-23T14:09:09.664Z,1.70
2022-10-23T14:11:36.834Z,1.60
2022-10-23T14:14:03.987Z,1.40
2022-10-23T14:16:33.596Z,1.60
2022-10-23T14:19:00.865Z,1.70
2022-10-23T14:21:27.908Z,1.30
2022-10-23T14:23:55.144Z,1.50
2022-10-23T14:26:24.907Z,1.70
2022-10-23T14:28:53.132Z,1.60
2022-10-23T14:31:20.384Z,1.40
2022-10-23T14:33:51.781Z,1.40
2022-10-23T14:38:55.510Z,1.50
2022-10-23T14:41:23.109Z,1.70
2022-10-23T14:43:50.159Z,1.50
2022-10-23T14:46:19.299Z,1.50
2022-10-23T14:48:48.226Z,1.60
2022-10-23T14:51:22.869Z,2.10
2022-10-23T14:53:51.427Z,2.00
2022-10-23T14:56:19.153Z,1.60
2022-10-23T14:58:46.162Z,1.50
2022-10-23T15:01:13.315Z,2.10
2022-10-23T15:04:01.416Z,2.90
2022-10-23T15:06:51.804Z,2.30
2022-10-23T15:09:29.492Z,2.00
2022-10-23T15:12:25.935Z,2.10
2022-10-23T15:14:53.103Z,1.80
2022-10-23T15:17:20.050Z,1.90
2022-10-23T15:19:47.124Z,2.10
2022-10-23T15:22:14.143Z,2.20
2022-10-23T15:24:41.190Z,2.60
2022-10-23T15:29:40.127Z,4.00
2022-10-23T15:32:07.964Z,3.00
2022-10-23T15:34:35.318Z,3.50
2022-10-23T15:37:02.469Z,3.50
2022-10-23T15:39:33.967Z,3.30
2022-10-23T15:42:01.273Z,2.60
2022-10-23T15:44:29.431Z,3.30
2022-10-23T15:46:59.361Z,3.70
2022-10-23T15:49:27.523Z,3.50
2022-10-23T15:51:54.707Z,3.90
2022-10-23T15:54:22.241Z,4.40
2022-10-23T15:56:50.827Z,5.00
2022-10-23T15:59:20.325Z,5.10
2022-10-23T16:01:48.635Z,4.80
2022-10-23T16:04:16.485Z,4.90
2022-10-23T16:06:45.078Z,5.00
2022-10-23T16:09:17.266Z,5.10
2022-10-23T16:19:46.169Z,6.10
2022-10-23T16:22:13.129Z,7.10
2022-10-23T16:24:40.106Z,7.50
2022-10-23T16:27:07.839Z,7.40
2022-10-23T16:29:34.769Z,8.30
2022-10-23T16:32:01.825Z,8.40
2022-10-23T16:34:28.885Z,7.90
2022-10-23T16:36:56.122Z,7.30
2022-10-23T16:39:52.661Z,7.30
2022-10-23T16:42:45.804Z,7.90
2022-10-23T16:45:34.458Z,7.80
2022-10-23T16:48:04.274Z,7.50
2022-10-23T16:50:31.258Z,8.30
2022-10-23T16:52:58.478Z,8.60
2022-10-23T16:55:25.449Z,8.70
2022-10-23T16:57:52.363Z,8.20
2022-10-23T17:00:22.491Z,9.00
2022-10-23T17:02:49.555Z,8.80
2022-10-23T17:05:16.681Z,8.80
2022-10-23T17:07:44.134Z,8.40
2022-10-23T17:10:12.312Z,8.90
2022-10-23T17:12:39.458Z,8.30
2022-10-23T17:15:07.469Z,8.60
2022-10-23T17:17:34.475Z,9.80
2022-10-23T17:20:01.524Z,9.40
2022-10-23T17:22:29.283Z,9.20
2022-10-23T17:24:56.327Z,9.00
2022-10-23T17:27:23.293Z,9.70
2022-10-23T17:29:50.318Z,10.90
2022-10-23T17:32:17.325Z,11.00
2022-10-23T17:34:44.514Z,12.30
2022-10-23T17:37:13.510Z,15.10
2022-10-23T17:39:40.999Z,14.80
2022-10-23T17:42:08.019Z,14.60
2022-10-23T17:44:36.287Z,16.60
2022-10-23T17:47:03.437Z,14.80
2022-10-23T17:49:30.402Z,14.50
2022-10-23T17:51:58.001Z,13.00
2022-10-23T17:54:25.619Z,11.80
2022-10-23T17:56:52.770Z,11.90
2022-10-23T17:59:20.132Z,12.20
2022-10-23T18:01:48.502Z,11.20
2022-10-23T18:04:16.919Z,12.10
2022-10-23T18:06:45.796Z,12.10
2022-10-23T18:09:12.905Z,11.50
2022-10-23T18:11:45.339Z,11.30
2022-10-23T18:14:16.151Z,10.90
2022-10-23T18:16:43.689Z,10.70
2022-10-23T18:19:10.930Z,12.40
2022-10-23T18:21:38.298Z,13.50
2022-10-23T18:24:05.956Z,14.70
2022-10-23T18:26:35.340Z,16.80
2022-10-23T18:29:04.542Z,17.30
2022-10-23T18:31:31.724Z,16.40
2022-10-23T18:34:01.565Z,15.50
2022-10-23T18:36:30.285Z,17.00
2022-10-23T18:38:57.340Z,17.30
2022-10-23T18:41:24.688Z,17.70
2022-10-23T18:43:52.143Z,17.10
2022-10-23T18:46:19.393Z,17.50
2022-10-23T18:48:47.278Z,17.50
2022-10-23T18:51:20.046Z,19.10
2022-10-23T18:53:47.604Z,17.50
2022-10-23T18:56:16.095Z,19.00
2022-10-23T18:58:43.231Z,19.60
2022-10-23T19:01:10.441Z,19.80
2022-10-23T19:03:37.529Z,17.70
2022-10-23T19:06:06.840Z,19.80
2022-10-23T19:08:37.495Z,19.40
2022-10-23T19:11:06.653Z,19.40
2022-10-23T19:13:39.021Z,19.20
2022-10-23T19:16:22.367Z,21.50
2022-10-23T19:18:52.477Z,22.80
2022-10-23T19:21:20.450Z,26.30
2022-10-23T19:23:47.597Z,26.20
2022-10-23T19:26:14.746Z,27.90
2022-10-23T19:28:44.384Z,27.30
2022-10-23T19:31:12.633Z,24.20
2022-10-23T19:33:39.892Z,23.40
2022-10-23T19:36:11.183Z,23.60
2022-10-23T19:41:08.811Z,40.50
2022-10-23T19:43:37.944Z,21.20
2022-10-23T19:46:09.272Z,18.00
2022-10-23T19:48:42.665Z,18.20
2022-10-23T19:51:13.565Z,15.60
2022-10-23T19:53:42.905Z,15.70
2022-10-23T19:56:10.971Z,16.30
2022-10-23T19:58:38.407Z,16.60
2022-10-23T20:01:14.069Z,16.60
2022-10-23T20:03:41.922Z,17.50
2022-10-23T20:06:13.783Z,16.40
2022-10-23T20:08:41.051Z,15.70
2022-10-23T20:11:08.187Z,15.50
2022-10-23T20:13:35.355Z,17.30
2022-10-23T20:16:02.643Z,19.10
2022-10-23T20:18:30.760Z,19.90
2022-10-23T20:20:57.808Z,18.60
2022-10-23T20:23:24.806Z,19.50
2022-10-23T20:25:51.907Z,19.20
2022-10-23T20:28:22.126Z,18.70
2022-10-23T20:30:49.172Z,17.80
2022-10-23T20:33:16.214Z,17.90
2022-10-23T20:35:43.668Z,17.70
2022-10-23T20:38:10.721Z,17.80
2022-10-23T20:40:37.735Z,17.50
2022-10-23T20:43:04.751Z,16.50
2022-10-23T20:45:32.013Z,17.10
2022-10-23T20:47:59.146Z,15.80
2022-10-23T20:50:26.160Z,17.00
2022-10-23T20:52:53.141Z,17.50
2022-10-23T20:55:20.261Z,18.20
2022-10-23T20:57:47.416Z,17.80
2022-10-23T21:00:15.785Z,17.80
2022-10-23T21:02:45.948Z,16.50
2022-10-23T21:05:15.815Z,15.80
2022-10-23T21:07:42.761Z,16.30
2022-10-23T21:10:10.018Z,15.70
2022-10-23T21:12:37.121Z,15.80
2022-10-23T21:15:04.756Z,16.20
2022-10-23T21:17:35.977Z,15.60
2022-10-23T21:20:03.731Z,15.20
2022-10-23T21:22:30.674Z,14.80
2022-10-23T21:24:59.074Z,16.20
2022-10-23T21:27:26.406Z,16.30
2022-10-23T21:29:53.365Z,17.60
2022-10-23T21:32:21.014Z,18.60
2022-10-23T21:34:47.982Z,16.60
2022-10-23T21:37:15.319Z,19.30
2022-10-23T21:39:43.034Z,19.10
2022-10-23T21:42:10.823Z,16.60
2022-10-23T21:44:37.748Z,16.50
2022-10-23T21:47:04.775Z,13.90
2022-10-23T21:49:32.055Z,13.30
2022-10-23T21:51:58.999Z,12.80
2022-10-23T21:54:25.942Z,11.50
2022-10-23T21:56:55.739Z,10.30
2022-10-23T21:59:25.805Z,9.50
2022-10-23T22:01:54.862Z,10.50
2022-10-23T22:04:22.169Z,9.00
2022-10-23T22:06:56.637Z,8.90
2022-10-23T22:09:24.341Z,8.90
2022-10-23T22:11:52.445Z,9.20
2022-10-23T22:14:21.666Z,8.80
2022-10-23T22:19:20.634Z,9.30
2022-10-23T22:21:48.573Z,9.70
2022-10-23T22:24:16.209Z,8.40
2022-10-23T22:26:45.475Z,9.70
2022-10-23T22:30:16.797Z,9.30
2022-10-23T22:32:47.116Z,9.30
2022-10-23T22:35:14.988Z,9.00
2022-10-23T22:37:41.944Z,9.40
2022-10-23T22:40:09.809Z,10.60
2022-10-23T22:42:38.689Z,8.80
2022-10-23T22:45:06.346Z,8.70
2022-10-23T22:47:33.496Z,8.90
2022-10-23T22:50:01.275Z,9.40
2022-10-23T22:52:28.307Z,9.50
2022-10-23T22:54:55.483Z,10.70
2022-10-23T22:57:22.522Z,9.40
2022-10-23T22:59:49.578Z,9.60
2022-10-23T23:02:16.907Z,9.60
2022-10-23T23:04:43.851Z,9.10
2022-10-23T23:07:12.025Z,9.00
2022-10-23T23:09:40.113Z,9.30
2022-10-23T23:12:07.758Z,8.70
2022-10-23T23:14:34.803Z,8.00
2022-10-23T23:17:02.054Z,6.50
2022-10-23T23:19:29.103Z,6.80
2022-10-23T23:21:57.223Z,5.70
2022-10-23T23:24:25.245Z,6.40
2022-10-23T23:26:52.327Z,6.70
2022-10-23T23:29:19.441Z,6.80
2022-10-23T23:31:46.549Z,6.50
2022-10-23T23:34:13.524Z,7.30
2022-10-23T23:36:41.155Z,8.50
2022-10-23T23:39:08.235Z,7.30
2022-10-23T23:41:35.149Z,6.60
2022-10-23T23:44:02.326Z,6.20
2022-10-23T23:46:29.345Z,6.10
2022-10-23T23:48:56.309Z,7.30
2022-10-23T23:51:24.360Z,7.80
2022-10-23T23:53:51.835Z,7.00
2022-10-23T23:56:19.376Z,7.00
2022-10-23T23:58:46.438Z,6.80
